sensor_id;sensor_type;location;lat;lon;timestamp;temperature;humidity
33955;DHT22;20233;50.804;7.126;2022-09-03T00:10:32;18.40;99.90
33955;DHT22;20233;50.804;7.126;2022-09-03T00:13:03;18.30;99.90
33955;DHT22;20233;50.804;7.126;2022-09-03T00:15:31;18.30;99.90
33955;DHT22;20233;50.804;7.126;2022-09-03T00:18:10;18.20;99.90
33955;DHT22;20233;50.804;7.126;2022-09-03T00:20:51;18.20;99.90
33955;DHT22;20233;50.804;7.126;2022-09-03T00:23:25;18.20;99.90
33955;DHT22;20233;50.804;7.126;2022-09-03T00:28:56;18.00;99.90
33955;DHT22;20233;50.804;7.126;2022-09-03T00:31:36;18.00;99.90
33955;DHT22;20233;50.804;7.126;2022-09-03T00:36:52;17.90;99.90
33955;DHT22;20233;50.804;7.126;2022-09-03T00:39:20;17.90;99.90
33955;DHT22;20233;50.804;7.126;2022-09-03T00:48:06;17.80;99.90
33955;DHT22;20233;50.804;7.126;2022-09-03T00:53:52;17.80;99.90
33955;DHT22;20233;50.804;7.126;2022-09-03T01:02:00;17.80;99.90
33955;DHT22;20233;50.804;7.126;2022-09-03T01:04:37;17.80;99.90
33955;DHT22;20233;50.804;7.126;2022-09-03T01:07:29;17.80;99.90
33955;DHT22;20233;50.804;7.126;2022-09-03T01:12:58;17.80;99.90
33955;DHT22;20233;50.804;7.126;2022-09-03T01:15:41;17.80;99.90
33955;DHT22;20233;50.804;7.126;2022-09-03T01:18:16;17.80;99.90
33955;DHT22;20233;50.804;7.126;2022-09-03T01:23:42;17.70;99.90
33955;DHT22;20233;50.804;7.126;2022-09-03T01:26:37;17.70;99.90
33955;DHT22;20233;50.804;7.126;2022-09-03T01:37:10;17.60;99.90
33955;DHT22;20233;50.804;7.126;2022-09-03T01:42:45;17.50;99.90
33955;DHT22;20233;50.804;7.126;2022-09-03T01:45:34;17.60;99.90
33955;DHT22;20233;50.804;7.126;2022-09-03T01:51:18;17.60;99.90
33955;DHT22;20233;50.804;7.126;2022-09-03T01:59:58;17.50;99.90
33955;DHT22;20233;50.804;7.126;2022-09-03T02:02:27;17.60;99.90
33955;DHT22;20233;50.804;7.126;2022-09-03T02:05:06;17.60;99.90
33955;DHT22;20233;50.804;7.126;2022-09-03T02:07:36;17.60;99.90
33955;DHT22;20233;50.804;7.126;2022-09-03T02:10:04;17.60;99.90
33955;DHT22;20233;50.804;7.126;2022-09-03T02:12:32;17.50;99.90
33955;DHT22;20233;50.804;7.126;2022-09-03T02:15:00;17.50;99.90
33955;DHT22;20233;50.804;7.126;2022-09-03T02:17:30;17.60;99.90
33955;DHT22;20233;50.804;7.126;2022-09-03T02:19:56;17.50;99.90
33955;DHT22;20233;50.804;7.126;2022-09-03T02:22:22;17.60;99.90
33955;DHT22;20233;50.804;7.126;2022-09-03T02:24:48;17.50;99.90
33955;DHT22;20233;50.804;7.126;2022-09-03T02:27:14;17.60;99.90
33955;DHT22;20233;50.804;7.126;2022-09-03T02:29:40;17.60;99.90
33955;DHT22;20233;50.804;7.126;2022-09-03T02:32:05;17.50;99.90
33955;DHT22;20233;50.804;7.126;2022-09-03T02:34:31;17.50;99.90
33955;DHT22;20233;50.804;7.126;2022-09-03T02:36:56;17.60;99.90
33955;DHT22;20233;50.804;7.126;2022-09-03T02:39:22;17.50;99.90
33955;DHT22;20233;50.804;7.126;2022-09-03T02:41:54;17.60;99.90
33955;DHT22;20233;50.804;7.126;2022-09-03T02:44:27;17.50;99.90
33955;DHT22;20233;50.804;7.126;2022-09-03T02:47:01;17.50;99.90
33955;DHT22;20233;50.804;7.126;2022-09-03T02:49:28;17.40;99.90
33955;DHT22;20233;50.804;7.126;2022-09-03T02:51:59;17.40;99.90
33955;DHT22;20233;50.804;7.126;2022-09-03T02:54:25;17.40;99.90
33955;DHT22;20233;50.804;7.126;2022-09-03T02:56:51;17.40;99.90
33955;DHT22;20233;50.804;7.126;2022-09-03T02:59:16;17.30;99.90
33955;DHT22;20233;50.804;7.126;2022-09-03T03:01:42;17.30;99.90
33955;DHT22;20233;50.804;7.126;2022-09-03T03:04:08;17.30;99.90
33955;DHT22;20233;50.804;7.126;2022-09-03T03:06:33;17.30;99.90
33955;DHT22;20233;50.804;7.126;2022-09-03T03:08:59;17.20;99.90
33955;DHT22;20233;50.804;7.126;2022-09-03T03:11:28;17.30;99.90
33955;DHT22;20233;50.804;7.126;2022-09-03T03:13:54;17.30;99.90
33955;DHT22;20233;50.804;7.126;2022-09-03T03:16:21;17.30;99.90
33955;DHT22;20233;50.804;7.126;2022-09-03T03:18:46;17.30;99.90
33955;DHT22;20233;50.804;7.126;2022-09-03T03:21:14;17.30;99.90
33955;DHT22;20233;50.804;7.126;2022-09-03T03:23:40;17.20;99.90
33955;DHT22;20233;50.804;7.126;2022-09-03T03:26:09;17.20;99.90
33955;DHT22;20233;50.804;7.126;2022-09-03T03:28:36;17.20;99.90
33955;DHT22;20233;50.804;7.126;2022-09-03T03:31:09;17.20;99.90
33955;DHT22;20233;50.804;7.126;2022-09-03T03:33:36;17.20;99.90
33955;DHT22;20233;50.804;7.126;2022-09-03T03:36:06;17.20;99.90
33955;DHT22;20233;50.804;7.126;2022-09-03T03:38:34;17.20;99.90
33955;DHT22;20233;50.804;7.126;2022-09-03T03:41:06;17.10;99.90
33955;DHT22;20233;50.804;7.126;2022-09-03T03:43:32;17.20;99.90
33955;DHT22;20233;50.804;7.126;2022-09-03T03:45:58;17.20;99.90
33955;DHT22;20233;50.804;7.126;2022-09-03T03:48:25;17.20;99.90
33955;DHT22;20233;50.804;7.126;2022-09-03T03:50:51;17.10;99.90
33955;DHT22;20233;50.804;7.126;2022-09-03T03:53:16;17.10;99.90
33955;DHT22;20233;50.804;7.126;2022-09-03T03:55:42;17.10;99.90
33955;DHT22;20233;50.804;7.126;2022-09-03T03:58:08;17.10;99.90
33955;DHT22;20233;50.804;7.126;2022-09-03T04:00:33;17.00;99.90
33955;DHT22;20233;50.804;7.126;2022-09-03T04:03:03;17.00;99.90
33955;DHT22;20233;50.804;7.126;2022-09-03T04:05:28;17.00;99.90
33955;DHT22;20233;50.804;7.126;2022-09-03T04:07:54;17.00;99.90
33955;DHT22;20233;50.804;7.126;2022-09-03T04:10:20;17.10;99.90
33955;DHT22;20233;50.804;7.126;2022-09-03T04:12:45;17.10;99.90
33955;DHT22;20233;50.804;7.126;2022-09-03T04:15:11;17.10;99.90
33955;DHT22;20233;50.804;7.126;2022-09-03T04:17:37;17.10;99.90
33955;DHT22;20233;50.804;7.126;2022-09-03T04:20:04;17.10;99.90
33955;DHT22;20233;50.804;7.126;2022-09-03T04:22:30;17.00;99.90
33955;DHT22;20233;50.804;7.126;2022-09-03T04:24:55;17.00;99.90
33955;DHT22;20233;50.804;7.126;2022-09-03T04:27:21;17.00;99.90
33955;DHT22;20233;50.804;7.126;2022-09-03T04:29:46;17.00;99.90
33955;DHT22;20233;50.804;7.126;2022-09-03T04:32:12;17.00;99.90
33955;DHT22;20233;50.804;7.126;2022-09-03T04:34:56;17.10;99.90
33955;DHT22;20233;50.804;7.126;2022-09-03T04:37:21;17.10;99.90
33955;DHT22;20233;50.804;7.126;2022-09-03T04:39:47;17.10;99.90
33955;DHT22;20233;50.804;7.126;2022-09-03T04:42:13;17.10;99.90
33955;DHT22;20233;50.804;7.126;2022-09-03T04:44:38;17.10;99.90
33955;DHT22;20233;50.804;7.126;2022-09-03T04:47:05;17.10;99.90
33955;DHT22;20233;50.804;7.126;2022-09-03T04:49:31;17.10;99.90
33955;DHT22;20233;50.804;7.126;2022-09-03T04:51:56;17.10;99.90
33955;DHT22;20233;50.804;7.126;2022-09-03T04:54:22;17.20;99.90
33955;DHT22;20233;50.804;7.126;2022-09-03T04:56:47;17.10;99.90
33955;DHT22;20233;50.804;7.126;2022-09-03T04:59:13;17.20;99.90
33955;DHT22;20233;50.804;7.126;2022-09-03T05:01:40;17.10;99.90
33955;DHT22;20233;50.804;7.126;2022-09-03T05:04:07;17.10;99.90
33955;DHT22;20233;50.804;7.126;2022-09-03T05:06:34;17.20;99.90
33955;DHT22;20233;50.804;7.126;2022-09-03T05:09:01;17.20;99.90
33955;DHT22;20233;50.804;7.126;2022-09-03T05:11:28;17.20;99.90
33955;DHT22;20233;50.804;7.126;2022-09-03T05:13:55;17.20;99.90
33955;DHT22;20233;50.804;7.126;2022-09-03T05:16:22;17.20;99.90
33955;DHT22;20233;50.804;7.126;2022-09-03T05:18:52;17.20;99.90
33955;DHT22;20233;50.804;7.126;2022-09-03T05:21:19;17.20;99.90
33955;DHT22;20233;50.804;7.126;2022-09-03T05:23:46;17.20;99.90
33955;DHT22;20233;50.804;7.126;2022-09-03T05:26:24;17.20;99.90
33955;DHT22;20233;50.804;7.126;2022-09-03T05:28:58;17.20;99.90
33955;DHT22;20233;50.804;7.126;2022-09-03T05:31:26;17.30;99.90
33955;DHT22;20233;50.804;7.126;2022-09-03T05:33:57;17.30;99.90
33955;DHT22;20233;50.804;7.126;2022-09-03T05:36:26;17.30;99.90
33955;DHT22;20233;50.804;7.126;2022-09-03T05:38:52;17.30;99.90
33955;DHT22;20233;50.804;7.126;2022-09-03T05:41:22;17.30;99.90
33955;DHT22;20233;50.804;7.126;2022-09-03T05:43:52;17.40;99.90
33955;DHT22;20233;50.804;7.126;2022-09-03T05:46:22;17.50;99.90
33955;DHT22;20233;50.804;7.126;2022-09-03T05:48:51;17.60;99.90
33955;DHT22;20233;50.804;7.126;2022-09-03T05:51:17;17.70;99.90
33955;DHT22;20233;50.804;7.126;2022-09-03T05:53:45;17.70;99.90
33955;DHT22;20233;50.804;7.126;2022-09-03T05:56:22;17.70;99.90
33955;DHT22;20233;50.804;7.126;2022-09-03T05:58:53;17.70;99.90
33955;DHT22;20233;50.804;7.126;2022-09-03T06:01:27;17.80;99.90
33955;DHT22;20233;50.804;7.126;2022-09-03T06:03:54;17.90;99.90
33955;DHT22;20233;50.804;7.126;2022-09-03T06:06:21;17.90;99.90
33955;DHT22;20233;50.804;7.126;2022-09-03T06:08:51;17.90;99.90
33955;DHT22;20233;50.804;7.126;2022-09-03T06:11:17;18.00;99.90
33955;DHT22;20233;50.804;7.126;2022-09-03T06:13:42;18.10;99.90
33955;DHT22;20233;50.804;7.126;2022-09-03T06:16:08;18.10;99.90
33955;DHT22;20233;50.804;7.126;2022-09-03T06:18:34;18.10;99.90
33955;DHT22;20233;50.804;7.126;2022-09-03T06:21:05;18.20;99.90
33955;DHT22;20233;50.804;7.126;2022-09-03T06:23:32;18.20;99.90
33955;DHT22;20233;50.804;7.126;2022-09-03T06:28:25;18.30;99.90
33955;DHT22;20233;50.804;7.126;2022-09-03T06:30:52;18.30;99.90
33955;DHT22;20233;50.804;7.126;2022-09-03T06:33:17;18.40;99.90
33955;DHT22;20233;50.804;7.126;2022-09-03T06:35:43;18.50;99.90
33955;DHT22;20233;50.804;7.126;2022-09-03T06:38:11;18.60;99.90
33955;DHT22;20233;50.804;7.126;2022-09-03T06:40:37;18.60;99.90
33955;DHT22;20233;50.804;7.126;2022-09-03T06:43:03;18.70;99.90
33955;DHT22;20233;50.804;7.126;2022-09-03T06:45:29;18.70;99.90
33955;DHT22;20233;50.804;7.126;2022-09-03T06:47:55;18.80;99.90
33955;DHT22;20233;50.804;7.126;2022-09-03T06:50:21;18.90;99.90
33955;DHT22;20233;50.804;7.126;2022-09-03T06:52:53;19.10;99.90
33955;DHT22;20233;50.804;7.126;2022-09-03T06:55:20;19.10;99.90
33955;DHT22;20233;50.804;7.126;2022-09-03T06:57:46;19.20;99.90
33955;DHT22;20233;50.804;7.126;2022-09-03T07:00:12;19.40;99.90
33955;DHT22;20233;50.804;7.126;2022-09-03T07:02:38;19.40;99.90
33955;DHT22;20233;50.804;7.126;2022-09-03T07:05:06;19.50;99.90
33955;DHT22;20233;50.804;7.126;2022-09-03T07:07:32;19.60;99.90
33955;DHT22;20233;50.804;7.126;2022-09-03T07:09:57;19.70;99.90
33955;DHT22;20233;50.804;7.126;2022-09-03T07:12:23;19.70;99.90
33955;DHT22;20233;50.804;7.126;2022-09-03T07:14:48;19.70;99.90
33955;DHT22;20233;50.804;7.126;2022-09-03T07:17:15;19.70;99.90
33955;DHT22;20233;50.804;7.126;2022-09-03T07:19:40;19.70;99.90
33955;DHT22;20233;50.804;7.126;2022-09-03T07:22:06;19.70;99.90
33955;DHT22;20233;50.804;7.126;2022-09-03T07:24:33;19.70;99.90
33955;DHT22;20233;50.804;7.126;2022-09-03T07:27:00;19.80;99.90
33955;DHT22;20233;50.804;7.126;2022-09-03T07:29:26;19.90;99.90
33955;DHT22;20233;50.804;7.126;2022-09-03T07:31:53;20.00;99.90
33955;DHT22;20233;50.804;7.126;2022-09-03T07:34:19;20.00;99.90
33955;DHT22;20233;50.804;7.126;2022-09-03T07:36:46;20.00;99.90
33955;DHT22;20233;50.804;7.126;2022-09-03T07:39:13;20.10;99.90
33955;DHT22;20233;50.804;7.126;2022-09-03T07:41:40;20.20;99.90
33955;DHT22;20233;50.804;7.126;2022-09-03T07:44:13;20.10;99.90
33955;DHT22;20233;50.804;7.126;2022-09-03T07:46:40;20.10;99.90
33955;DHT22;20233;50.804;7.126;2022-09-03T07:49:06;20.20;99.90
33955;DHT22;20233;50.804;7.126;2022-09-03T07:51:36;20.20;99.90
33955;DHT22;20233;50.804;7.126;2022-09-03T07:54:07;20.20;99.90
33955;DHT22;20233;50.804;7.126;2022-09-03T07:56:34;20.20;99.90
33955;DHT22;20233;50.804;7.126;2022-09-03T07:59:00;20.20;99.90
33955;DHT22;20233;50.804;7.126;2022-09-03T08:01:29;20.20;99.90
33955;DHT22;20233;50.804;7.126;2022-09-03T08:03:56;20.10;99.90
33955;DHT22;20233;50.804;7.126;2022-09-03T08:06:24;20.10;99.90
33955;DHT22;20233;50.804;7.126;2022-09-03T08:08:58;20.10;99.90
33955;DHT22;20233;50.804;7.126;2022-09-03T08:11:25;19.90;99.90
33955;DHT22;20233;50.804;7.126;2022-09-03T08:13:56;19.70;99.90
33955;DHT22;20233;50.804;7.126;2022-09-03T08:16:25;19.60;99.90
33955;DHT22;20233;50.804;7.126;2022-09-03T08:18:51;19.60;99.90
33955;DHT22;20233;50.804;7.126;2022-09-03T08:21:19;19.50;99.90
33955;DHT22;20233;50.804;7.126;2022-09-03T08:23:46;19.40;99.90
33955;DHT22;20233;50.804;7.126;2022-09-03T08:26:13;19.50;99.90
33955;DHT22;20233;50.804;7.126;2022-09-03T08:28:39;19.50;99.90
33955;DHT22;20233;50.804;7.126;2022-09-03T08:31:07;19.40;99.90
33955;DHT22;20233;50.804;7.126;2022-09-03T08:33:36;19.50;99.90
33955;DHT22;20233;50.804;7.126;2022-09-03T08:36:07;19.40;99.90
33955;DHT22;20233;50.804;7.126;2022-09-03T08:38:33;19.40;99.90
33955;DHT22;20233;50.804;7.126;2022-09-03T08:41:07;19.40;99.90
33955;DHT22;20233;50.804;7.126;2022-09-03T08:44:01;19.30;99.90
33955;DHT22;20233;50.804;7.126;2022-09-03T08:46:45;19.30;99.90
33955;DHT22;20233;50.804;7.126;2022-09-03T08:49:18;19.20;99.90
33955;DHT22;20233;50.804;7.126;2022-09-03T08:51:46;19.20;99.90
33955;DHT22;20233;50.804;7.126;2022-09-03T08:54:13;19.20;99.90
33955;DHT22;20233;50.804;7.126;2022-09-03T08:56:41;19.10;99.90
33955;DHT22;20233;50.804;7.126;2022-09-03T08:59:08;19.20;99.90
33955;DHT22;20233;50.804;7.126;2022-09-03T09:04:52;19.40;99.90
33955;DHT22;20233;50.804;7.126;2022-09-03T09:10:40;19.20;99.90
33955;DHT22;20233;50.804;7.126;2022-09-03T09:16:09;19.40;99.90
33955;DHT22;20233;50.804;7.126;2022-09-03T09:19:07;19.50;99.90
33955;DHT22;20233;50.804;7.126;2022-09-03T09:21:40;19.60;99.90
33955;DHT22;20233;50.804;7.126;2022-09-03T09:24:20;19.60;99.90
33955;DHT22;20233;50.804;7.126;2022-09-03T09:26:48;19.70;99.90
33955;DHT22;20233;50.804;7.126;2022-09-03T09:29:14;19.70;99.90
33955;DHT22;20233;50.804;7.126;2022-09-03T09:31:40;19.80;99.90
33955;DHT22;20233;50.804;7.126;2022-09-03T09:34:09;19.70;99.90
33955;DHT22;20233;50.804;7.126;2022-09-03T09:36:48;19.80;99.90
33955;DHT22;20233;50.804;7.126;2022-09-03T09:39:14;19.80;99.90
33955;DHT22;20233;50.804;7.126;2022-09-03T09:41:41;19.80;99.90
33955;DHT22;20233;50.804;7.126;2022-09-03T09:44:07;19.90;99.90
33955;DHT22;20233;50.804;7.126;2022-09-03T09:46:37;20.00;99.90
33955;DHT22;20233;50.804;7.126;2022-09-03T09:49:21;20.10;99.90
33955;DHT22;20233;50.804;7.126;2022-09-03T09:54:25;20.40;99.90
33955;DHT22;20233;50.804;7.126;2022-09-03T09:57:03;20.60;99.90
33955;DHT22;20233;50.804;7.126;2022-09-03T09:59:30;20.60;99.90
33955;DHT22;20233;50.804;7.126;2022-09-03T10:02:11;20.70;99.90
33955;DHT22;20233;50.804;7.126;2022-09-03T10:04:37;20.80;99.90
33955;DHT22;20233;50.804;7.126;2022-09-03T10:07:23;21.00;99.90
33955;DHT22;20233;50.804;7.126;2022-09-03T10:10:00;21.20;99.90
33955;DHT22;20233;50.804;7.126;2022-09-03T10:12:41;21.30;99.90
33955;DHT22;20233;50.804;7.126;2022-09-03T10:20:25;21.80;99.90
33955;DHT22;20233;50.804;7.126;2022-09-03T10:23:06;21.80;99.90
33955;DHT22;20233;50.804;7.126;2022-09-03T10:28:20;22.00;99.90
33955;DHT22;20233;50.804;7.126;2022-09-03T10:33:53;22.10;99.90
33955;DHT22;20233;50.804;7.126;2022-09-03T10:39:04;22.10;99.90
33955;DHT22;20233;50.804;7.126;2022-09-03T10:41:51;22.10;99.90
33955;DHT22;20233;50.804;7.126;2022-09-03T10:47:33;22.20;99.90
33955;DHT22;20233;50.804;7.126;2022-09-03T10:50:14;22.20;99.90
33955;DHT22;20233;50.804;7.126;2022-09-03T10:53:15;22.30;99.90
33955;DHT22;20233;50.804;7.126;2022-09-03T10:55:47;22.30;99.90
33955;DHT22;20233;50.804;7.126;2022-09-03T11:00:57;22.40;99.90
33955;DHT22;20233;50.804;7.126;2022-09-03T11:03:45;22.50;99.90
33955;DHT22;20233;50.804;7.126;2022-09-03T11:06:24;22.60;99.90
33955;DHT22;20233;50.804;7.126;2022-09-03T11:08:58;22.70;99.90
33955;DHT22;20233;50.804;7.126;2022-09-03T11:11:31;22.70;99.90
33955;DHT22;20233;50.804;7.126;2022-09-03T11:14:12;22.90;99.90
33955;DHT22;20233;50.804;7.126;2022-09-03T11:17:09;23.00;99.90
33955;DHT22;20233;50.804;7.126;2022-09-03T11:19:42;23.10;99.90
33955;DHT22;20233;50.804;7.126;2022-09-03T11:22:12;23.20;99.90
33955;DHT22;20233;50.804;7.126;2022-09-03T11:30:11;23.40;99.90
33955;DHT22;20233;50.804;7.126;2022-09-03T11:32:59;23.40;99.90
33955;DHT22;20233;50.804;7.126;2022-09-03T11:38:04;23.70;99.90
33955;DHT22;20233;50.804;7.126;2022-09-03T11:43:23;23.90;99.90
33955;DHT22;20233;50.804;7.126;2022-09-03T11:48:53;24.00;99.90
33955;DHT22;20233;50.804;7.126;2022-09-03T11:54:06;23.90;99.90
33955;DHT22;20233;50.804;7.126;2022-09-03T11:56:33;24.00;99.90
33955;DHT22;20233;50.804;7.126;2022-09-03T12:01:28;24.30;99.90
33955;DHT22;20233;50.804;7.126;2022-09-03T12:04:05;24.40;99.90
33955;DHT22;20233;50.804;7.126;2022-09-03T12:10:00;24.50;99.90
33955;DHT22;20233;50.804;7.126;2022-09-03T12:15:57;24.60;99.90
33955;DHT22;20233;50.804;7.126;2022-09-03T12:18:29;24.60;99.90
33955;DHT22;20233;50.804;7.126;2022-09-03T12:23:30;24.80;99.90
33955;DHT22;20233;50.804;7.126;2022-09-03T12:26:05;24.90;99.90
33955;DHT22;20233;50.804;7.126;2022-09-03T12:28:36;25.00;99.90
33955;DHT22;20233;50.804;7.126;2022-09-03T12:31:08;25.20;99.90
33955;DHT22;20233;50.804;7.126;2022-09-03T12:33:47;25.30;99.90
33955;DHT22;20233;50.804;7.126;2022-09-03T12:36:13;25.40;99.90
33955;DHT22;20233;50.804;7.126;2022-09-03T12:41:19;25.50;99.90
33955;DHT22;20233;50.804;7.126;2022-09-03T12:43:54;25.70;99.90
33955;DHT22;20233;50.804;7.126;2022-09-03T12:46:28;25.80;99.90
33955;DHT22;20233;50.804;7.126;2022-09-03T12:48:56;25.90;99.90
33955;DHT22;20233;50.804;7.126;2022-09-03T12:51:23;26.00;99.90
33955;DHT22;20233;50.804;7.126;2022-09-03T12:53:50;26.00;99.90
33955;DHT22;20233;50.804;7.126;2022-09-03T12:56:17;26.10;99.90
33955;DHT22;20233;50.804;7.126;2022-09-03T12:58:51;26.20;99.90
33955;DHT22;20233;50.804;7.126;2022-09-03T13:01:28;26.20;99.90
33955;DHT22;20233;50.804;7.126;2022-09-03T13:04:07;26.30;99.90
33955;DHT22;20233;50.804;7.126;2022-09-03T13:09:13;26.40;99.90
33955;DHT22;20233;50.804;7.126;2022-09-03T13:11:39;26.40;99.90
33955;DHT22;20233;50.804;7.126;2022-09-03T13:19:21;26.40;99.90
33955;DHT22;20233;50.804;7.126;2022-09-03T13:27:38;26.80;99.90
33955;DHT22;20233;50.804;7.126;2022-09-03T13:30:12;27.00;99.90
33955;DHT22;20233;50.804;7.126;2022-09-03T13:36:03;27.00;99.90
33955;DHT22;20233;50.804;7.126;2022-09-03T13:38:59;26.50;99.90
33955;DHT22;20233;50.804;7.126;2022-09-03T13:44:40;27.00;99.90
33955;DHT22;20233;50.804;7.126;2022-09-03T13:49:53;27.00;99.90
33955;DHT22;20233;50.804;7.126;2022-09-03T13:52:51;27.10;99.90
33955;DHT22;20233;50.804;7.126;2022-09-03T13:55:46;27.20;99.90
33955;DHT22;20233;50.804;7.126;2022-09-03T14:06:39;27.50;99.90
33955;DHT22;20233;50.804;7.126;2022-09-03T14:09:19;27.40;99.90
33955;DHT22;20233;50.804;7.126;2022-09-03T14:12:04;27.50;99.90
33955;DHT22;20233;50.804;7.126;2022-09-03T14:15:00;27.60;99.90
33955;DHT22;20233;50.804;7.126;2022-09-03T14:20:35;27.10;99.90
33955;DHT22;20233;50.804;7.126;2022-09-03T14:25:57;27.50;99.90
33955;DHT22;20233;50.804;7.126;2022-09-03T14:28:34;27.60;99.90
33955;DHT22;20233;50.804;7.126;2022-09-03T14:31:25;27.70;99.90
33955;DHT22;20233;50.804;7.126;2022-09-03T14:34:03;27.70;99.90
33955;DHT22;20233;50.804;7.126;2022-09-03T14:36:44;27.80;99.90
33955;DHT22;20233;50.804;7.126;2022-09-03T14:45:42;27.90;99.90
33955;DHT22;20233;50.804;7.126;2022-09-03T14:51:13;28.10;99.90
33955;DHT22;20233;50.804;7.126;2022-09-03T14:54:06;28.20;99.90
33955;DHT22;20233;50.804;7.126;2022-09-03T15:07:32;28.10;99.90
33955;DHT22;20233;50.804;7.126;2022-09-03T15:12:43;28.10;99.90
33955;DHT22;20233;50.804;7.126;2022-09-03T15:15:20;28.00;99.90
33955;DHT22;20233;50.804;7.126;2022-09-03T15:17:59;28.10;99.90
33955;DHT22;20233;50.804;7.126;2022-09-03T15:20:47;28.10;99.90
33955;DHT22;20233;50.804;7.126;2022-09-03T15:29:19;28.00;99.90
33955;DHT22;20233;50.804;7.126;2022-09-03T15:32:09;27.80;99.90
33955;DHT22;20233;50.804;7.126;2022-09-03T15:37:16;27.90;99.90
33955;DHT22;20233;50.804;7.126;2022-09-03T15:39:44;27.90;99.90
33955;DHT22;20233;50.804;7.126;2022-09-03T15:42:21;27.80;99.90
33955;DHT22;20233;50.804;7.126;2022-09-03T15:44:53;27.60;99.90
33955;DHT22;20233;50.804;7.126;2022-09-03T15:52:55;27.40;99.90
33955;DHT22;20233;50.804;7.126;2022-09-03T15:55:35;27.40;99.90
33955;DHT22;20233;50.804;7.126;2022-09-03T15:58:23;27.50;99.90
33955;DHT22;20233;50.804;7.126;2022-09-03T16:00:57;27.30;99.90
33955;DHT22;20233;50.804;7.126;2022-09-03T16:03:46;26.80;99.90
33955;DHT22;20233;50.804;7.126;2022-09-03T16:09:53;26.40;99.90
33955;DHT22;20233;50.804;7.126;2022-09-03T16:15:46;25.90;99.90
33955;DHT22;20233;50.804;7.126;2022-09-03T16:21:35;25.60;99.90
33955;DHT22;20233;50.804;7.126;2022-09-03T16:24:14;25.40;99.90
33955;DHT22;20233;50.804;7.126;2022-09-03T16:29:41;25.10;99.90
33955;DHT22;20233;50.804;7.126;2022-09-03T16:32:26;24.50;99.90
33955;DHT22;20233;50.804;7.126;2022-09-03T16:37:55;24.20;99.90
33955;DHT22;20233;50.804;7.126;2022-09-03T16:46:14;23.80;99.90
33955;DHT22;20233;50.804;7.126;2022-09-03T16:52:02;23.70;99.90
33955;DHT22;20233;50.804;7.126;2022-09-03T17:08:00;23.10;99.90
33955;DHT22;20233;50.804;7.126;2022-09-03T17:14:04;23.10;99.90
33955;DHT22;20233;50.804;7.126;2022-09-03T17:25:30;23.20;99.90
33955;DHT22;20233;50.804;7.126;2022-09-03T17:30:55;23.10;99.90
33955;DHT22;20233;50.804;7.126;2022-09-03T17:36:32;23.00;99.90
33955;DHT22;20233;50.804;7.126;2022-09-03T17:39:40;23.10;99.90
33955;DHT22;20233;50.804;7.126;2022-09-03T17:45:02;23.10;99.90
33955;DHT22;20233;50.804;7.126;2022-09-03T17:50:30;23.00;99.90
33955;DHT22;20233;50.804;7.126;2022-09-03T17:53:09;22.90;99.90
33955;DHT22;20233;50.804;7.126;2022-09-03T17:55:57;22.90;99.90
33955;DHT22;20233;50.804;7.126;2022-09-03T17:58:48;22.80;99.90
33955;DHT22;20233;50.804;7.126;2022-09-03T18:01:23;22.80;99.90
33955;DHT22;20233;50.804;7.126;2022-09-03T18:04:00;22.80;99.90
33955;DHT22;20233;50.804;7.126;2022-09-03T18:06:49;22.70;99.90
33955;DHT22;20233;50.804;7.126;2022-09-03T18:09:29;22.50;99.90
33955;DHT22;20233;50.804;7.126;2022-09-03T18:12:42;22.40;99.90
33955;DHT22;20233;50.804;7.126;2022-09-03T18:15:14;22.30;99.90
33955;DHT22;20233;50.804;7.126;2022-09-03T18:18:00;22.10;99.90
33955;DHT22;20233;50.804;7.126;2022-09-03T18:20:28;22.10;99.90
33955;DHT22;20233;50.804;7.126;2022-09-03T18:23:27;21.90;99.90
33955;DHT22;20233;50.804;7.126;2022-09-03T18:26:18;21.90;99.90
33955;DHT22;20233;50.804;7.126;2022-09-03T18:29:11;21.80;99.90
33955;DHT22;20233;50.804;7.126;2022-09-03T18:31:57;21.80;99.90
33955;DHT22;20233;50.804;7.126;2022-09-03T18:34:42;21.80;99.90
33955;DHT22;20233;50.804;7.126;2022-09-03T18:37:29;21.70;99.90
33955;DHT22;20233;50.804;7.126;2022-09-03T18:40:30;21.70;99.90
33955;DHT22;20233;50.804;7.126;2022-09-03T18:43:37;21.60;99.90
33955;DHT22;20233;50.804;7.126;2022-09-03T18:46:43;21.50;99.90
33955;DHT22;20233;50.804;7.126;2022-09-03T18:52:24;21.40;99.90
33955;DHT22;20233;50.804;7.126;2022-09-03T18:55:26;21.30;99.90
33955;DHT22;20233;50.804;7.126;2022-09-03T18:58:16;21.20;99.90
33955;DHT22;20233;50.804;7.126;2022-09-03T19:01:26;21.10;99.90
33955;DHT22;20233;50.804;7.126;2022-09-03T19:10:54;21.00;99.90
33955;DHT22;20233;50.804;7.126;2022-09-03T19:13:41;21.00;99.90
33955;DHT22;20233;50.804;7.126;2022-09-03T19:19:49;20.90;99.90
33955;DHT22;20233;50.804;7.126;2022-09-03T19:22:39;20.90;99.90
33955;DHT22;20233;50.804;7.126;2022-09-03T19:25:25;20.80;99.90
33955;DHT22;20233;50.804;7.126;2022-09-03T19:28:25;20.70;99.90
33955;DHT22;20233;50.804;7.126;2022-09-03T19:31:40;20.60;99.90
33955;DHT22;20233;50.804;7.126;2022-09-03T19:41:17;20.60;99.90
33955;DHT22;20233;50.804;7.126;2022-09-03T19:44:37;20.50;99.90
33955;DHT22;20233;50.804;7.126;2022-09-03T19:50:30;20.40;99.90
33955;DHT22;20233;50.804;7.126;2022-09-03T19:53:18;20.30;99.90
33955;DHT22;20233;50.804;7.126;2022-09-03T19:56:08;20.30;99.90
33955;DHT22;20233;50.804;7.126;2022-09-03T19:58:57;20.20;99.90
33955;DHT22;20233;50.804;7.126;2022-09-03T20:01:43;20.20;99.90
33955;DHT22;20233;50.804;7.126;2022-09-03T20:04:35;20.10;99.90
33955;DHT22;20233;50.804;7.126;2022-09-03T20:07:20;20.10;99.90
33955;DHT22;20233;50.804;7.126;2022-09-03T20:10:09;20.00;99.90
33955;DHT22;20233;50.804;7.126;2022-09-03T20:12:57;20.00;99.90
33955;DHT22;20233;50.804;7.126;2022-09-03T20:15:34;19.90;99.90
33955;DHT22;20233;50.804;7.126;2022-09-03T20:18:13;19.90;99.90
33955;DHT22;20233;50.804;7.126;2022-09-03T20:20:54;19.90;99.90
33955;DHT22;20233;50.804;7.126;2022-09-03T20:28:59;19.70;99.90
33955;DHT22;20233;50.804;7.126;2022-09-03T20:51:12;19.60;99.90
33955;DHT22;20233;50.804;7.126;2022-09-03T20:53:57;19.60;99.90
33955;DHT22;20233;50.804;7.126;2022-09-03T20:56:50;19.60;99.90
33955;DHT22;20233;50.804;7.126;2022-09-03T20:59:39;19.60;99.90
33955;DHT22;20233;50.804;7.126;2022-09-03T21:04:50;19.50;99.90
33955;DHT22;20233;50.804;7.126;2022-09-03T21:12:44;19.40;99.90
33955;DHT22;20233;50.804;7.126;2022-09-03T21:15:17;19.50;99.90
33955;DHT22;20233;50.804;7.126;2022-09-03T21:23:38;19.40;99.90
33955;DHT22;20233;50.804;7.126;2022-09-03T21:26:26;19.30;99.90
33955;DHT22;20233;50.804;7.126;2022-09-03T21:29:32;19.30;99.90
33955;DHT22;20233;50.804;7.126;2022-09-03T21:32:16;19.30;99.90